Time;durP1;ratioP1;P1;durP2;ratioP2;P2;SDS_P1;SDS_P2;PMS_P1;PMS_P2;Temp;Humidity;BMP_temperature;BMP_pressure;BME280_temperature;BME280_humidity;BME280_pressure;Samples;Min_cycle;Max_cycle;Signal;HPM_P1;HPM_P2
2023/04/14 00:02:13;;;;;;;;;;;;;;;;;;5019567;28;20384;-56
2023/04/14 00:04:38;;;;;;;;;;;;;;;;;;5020550;28;19913;-56
2023/04/14 00:07:05;;;;;;;;;;;;;;;;;;5020327;28;19909;-57
2023/04/14 00:09:31;;;;;;;;;;;;;;;;;;5005673;28;20561;-56
2023/04/14 00:11:57;;;;;;;;;;;;;;;;;;4996904;28;19908;-56
2023/04/14 00:14:23;;;;;;;;;;;;;;;;;;5017282;28;20540;-56
2023/04/14 00:16:49;;;;;;;;;;;;;;;;;;5027723;28;21222;-56
2023/04/14 00:19:15;;;;;;;;;;;;;;;;;;5036976;28;19909;-56
2023/04/14 00:21:40;;;;;;;;;;;;;;;;;;5037359;28;19916;-57
2023/04/14 00:24:06;;;;;;;;;;;;;;;;;;5037032;28;20002;-56
2023/04/14 00:26:32;;;;;;;;;;;;;;;;;;5036579;28;20422;-56
2023/04/14 00:28:58;;;;;;;;;;;;;;;;;;5034678;28;20212;-56
2023/04/14 00:31:24;;;;;;;;;;;;;;;;;;5038468;28;20407;-56
2023/04/14 00:33:50;;;;;;;;;;;;;;;;;;5041115;28;19963;-57
2023/04/14 00:36:16;;;;;;;;;;;;;;;;;;5033371;28;19938;-56
2023/04/14 00:38:42;;;;;;;;;;;;;;;;;;5026260;28;19919;-56
2023/04/14 00:41:08;;;;;;;;;;;;;;;;;;5028552;28;19913;-56
2023/04/14 00:43:33;;;;;;;;;;;;;;;;;;5039102;28;19930;-56
2023/04/14 00:46:00;;;;;;;;;;;;;;;;;;5029795;28;19908;-57
2023/04/14 00:48:26;;;;;;;;;;;;;;;;;;5038831;28;19916;-56
2023/04/14 00:50:51;;;;;;;;;;;;;;;;;;5040166;28;19925;-56
2023/04/14 00:53:18;;;;;;;;;;;;;;;;;;5039423;28;19994;-56
2023/04/14 00:55:44;;;;;;;;;;;;;;;;;;5032078;28;19917;-56
2023/04/14 00:58:10;;;;;;;;;;;;;;;;;;5033959;28;19920;-56
2023/04/14 01:00:36;;;;;;;;;;;;;;;;;;5030378;28;19915;-56
2023/04/14 01:03:02;;;;;;;;;;;;;;;;;;5030668;28;20385;-56
2023/04/14 01:05:28;;;;;;;;;;;;;;;;;;5032990;28;19933;-56
2023/04/14 01:07:54;;;;;;;;;;;;;;;;;;5027619;28;20456;-56
2023/04/14 01:10:20;;;;;;;;;;;;;;;;;;5026203;28;19916;-56
2023/04/14 01:12:46;;;;;;;;;;;;;;;;;;5031001;28;19912;-57
2023/04/14 01:15:12;;;;;;;;;;;;;;;;;;5013975;28;19917;-56
2023/04/14 01:17:38;;;;;;;;;;;;;;;;;;5021661;28;20003;-56
2023/04/14 01:20:04;;;;;;;;;;;;;;;;;;5012096;28;19916;-56
2023/04/14 01:22:29;;;;;;;;;;;;;;;;;;5012925;28;20018;-56
2023/04/14 01:24:55;;;;;;;;;;;;;;;;;;5015825;28;19909;-56
2023/04/14 01:27:21;;;;;;;;;;;;;;;;;;5014940;28;19924;-56
2023/04/14 01:29:47;;;;;;;;;;;;;;;;;;5015982;28;19909;-56
2023/04/14 01:32:13;;;;;;;;;;;;;;;;;;5001624;28;20440;-56
2023/04/14 01:34:39;;;;;;;;;;;;;;;;;;5013462;28;19909;-56
2023/04/14 01:37:05;;;;;;;;;;;;;;;;;;5012523;28;19927;-56
2023/04/14 01:39:31;;;;;;;;;;;;;;;;;;5024442;28;19913;-56
2023/04/14 01:42:01;;;;;;;;;;;;;;;;;;5019625;28;19913;-56
2023/04/14 01:44:27;;;;;;;;;;;;;;;;;;5021893;28;19912;-56
2023/04/14 01:46:53;;;;;;;;;;;;;;;;;;5017085;28;19913;-56
2023/04/14 01:49:19;;;;;;;;;;;;;;;;;;5026305;28;19912;-57
2023/04/14 01:51:45;;;;;;;;;;;;;;;;;;5018149;28;19938;-56
2023/04/14 01:54:11;;;;;;;;;;;;;;;;;;5020421;28;19915;-56
2023/04/14 01:56:37;;;;;;;;;;;;;;;;;;5013652;28;20419;-56
2023/04/14 01:59:03;;;;;;;;;;;;;;;;;;5011263;28;19909;-56
2023/04/14 02:01:29;;;;;;;;;;;;;;;;;;5016312;28;19998;-55
2023/04/14 02:03:55;;;;;;;;;;;;;;;;;;5016029;28;20297;-55
2023/04/14 02:06:21;;;;;;;;;;;;;;;;;;5012835;28;19955;-56
2023/04/14 02:08:46;;;;;;;;;;;;;;;;;;5015823;28;19912;-56
2023/04/14 02:11:13;;;;;;;;;;;;;;;;;;5019249;28;20484;-56
2023/04/14 02:13:39;;;;;;;;;;;;;;;;;;5017000;28;19932;-56
2023/04/14 02:16:05;;;;;;;;;;;;;;;;;;5015144;28;19957;-56
2023/04/14 02:18:32;;;;;;;;;;;;;;;;;;5014483;28;19917;-56
2023/04/14 02:20:59;;;;;;;;;;;;;;;;;;5008957;28;20320;-56
2023/04/14 02:23:25;;;;;;;;;;;;;;;;;;5013307;28;19919;-55
2023/04/14 02:25:51;;;;;;;;;;;;;;;;;;5010214;28;21520;-56
2023/04/14 02:28:17;;;;;;;;;;;;;;;;;;5004805;28;19913;-55
2023/04/14 02:30:43;;;;;;;;;;;;;;;;;;5006967;28;19913;-56
2023/04/14 02:33:09;;;;;;;;;;;;;;;;;;5013087;28;19909;-56
2023/04/14 02:35:36;;;;;;;;;;;;;;;;;;5018837;28;20424;-56
2023/04/14 02:38:02;;;;;;;;;;;;;;;;;;5019735;28;20384;-56
2023/04/14 02:40:28;;;;;;;;;;;;;;;;;;5013007;28;19917;-57
2023/04/14 02:42:54;;;;;;;;;;;;;;;;;;5017576;28;19912;-56
2023/04/14 02:45:20;;;;;;;;;;;;;;;;;;5013329;28;19939;-56
2023/04/14 02:47:46;;;;;;;;;;;;;;;;;;5018864;28;20301;-56
2023/04/14 02:50:12;;;;;;;;;;;;;;;;;;5014315;28;19917;-56
2023/04/14 02:52:38;;;;;;;;;;;;;;;;;;5013673;28;20007;-56
2023/04/14 02:55:03;;;;;;;;;;;;;;;;;;5011468;28;19928;-56
2023/04/14 02:57:29;;;;;;;;;;;;;;;;;;5016635;28;20008;-56
2023/04/14 02:59:56;;;;;;;;;;;;;;;;;;5014894;28;20349;-56
2023/04/14 03:02:22;;;;;;;;;;;;;;;;;;5013806;28;20290;-56
2023/04/14 03:04:47;;;;;;;;;;;;;;;;;;5017298;28;19913;-56
2023/04/14 03:07:13;;;;;;;;;;;;;;;;;;5019643;28;20377;-56
2023/04/14 03:09:39;;;;;;;;;;;;;;;;;;5015488;28;20008;-56
2023/04/14 03:12:05;;;;;;;;;;;;;;;;;;5015072;28;20550;-56
2023/04/14 03:14:31;;;;;;;;;;;;;;;;;;5013296;28;20197;-56
2023/04/14 03:16:57;;;;;;;;;;;;;;;;;;5013933;28;19913;-56
2023/04/14 03:19:23;;;;;;;;;;;;;;;;;;5018760;28;19913;-55
2023/04/14 03:21:49;;;;;;;;;;;;;;;;;;5018762;28;19909;-56
2023/04/14 03:24:19;;;;;;;;;;;;;;;;;;5021853;28;19913;-56
2023/04/14 03:26:45;;;;;;;;;;;;;;;;;;5015674;28;20449;-56
2023/04/14 03:29:13;;;;;;;;;;;;;;;;;;5009680;28;19917;-56
2023/04/14 03:31:39;;;;;;;;;;;;;;;;;;5009418;28;19970;-56
2023/04/14 03:34:05;;;;;;;;;;;;;;;;;;5021681;28;19912;-56
2023/04/14 03:36:31;;;;;;;;;;;;;;;;;;5018438;28;19931;-55
2023/04/14 03:38:58;;;;;;;;;;;;;;;;;;5010605;28;19909;-56
2023/04/14 03:41:24;;;;;;;;;;;;;;;;;;5015667;28;20396;-56
2023/04/14 03:43:53;;;;;;;;;;;;;;;;;;5020987;28;19919;-56
2023/04/14 03:46:20;;;;;;;;;;;;;;;;;;5019360;28;19913;-56
2023/04/14 03:48:47;;;;;;;;;;;;;;;;;;5021276;28;19917;-56
2023/04/14 03:51:13;;;;;;;;;;;;;;;;;;5016148;28;19924;-56
2023/04/14 03:53:40;;;;;;;;;;;;;;;;;;5023399;28;20069;-56
2023/04/14 03:56:06;;;;;;;;;;;;;;;;;;5012973;28;20066;-56
2023/04/14 03:58:32;;;;;;;;;;;;;;;;;;5016475;28;19917;-56
2023/04/14 04:00:58;;;;;;;;;;;;;;;;;;5009945;28;19909;-56
2023/04/14 04:03:24;;;;;;;;;;;;;;;;;;5017332;28;20429;-55
2023/04/14 04:05:50;;;;;;;;;;;;;;;;;;5021471;28;19919;-55
2023/04/14 04:08:17;;;;;;;;;;;;;;;;;;5013712;28;20214;-56
2023/04/14 04:10:43;;;;;;;;;;;;;;;;;;5015815;28;19913;-56
2023/04/14 04:13:09;;;;;;;;;;;;;;;;;;5015958;28;19924;-56
2023/04/14 04:15:35;;;;;;;;;;;;;;;;;;5014813;28;19917;-56
2023/04/14 04:18:00;;;;;;;;;;;;;;;;;;5021427;28;19963;-56
2023/04/14 04:20:26;;;;;;;;;;;;;;;;;;5019036;28;19975;-56
2023/04/14 04:22:52;;;;;;;;;;;;;;;;;;5018378;28;19913;-56
2023/04/14 04:25:18;;;;;;;;;;;;;;;;;;4990902;28;19917;-56
2023/04/14 04:27:44;;;;;;;;;;;;;;;;;;5016807;28;20020;-56
2023/04/14 04:30:10;;;;;;;;;;;;;;;;;;5019068;28;20319;-56
2023/04/14 04:32:36;;;;;;;;;;;;;;;;;;5021349;28;19913;-56
2023/04/14 04:35:02;;;;;;;;;;;;;;;;;;5022355;28;19913;-56
2023/04/14 04:37:28;;;;;;;;;;;;;;;;;;5014311;28;20044;-56
2023/04/14 04:39:54;;;;;;;;;;;;;;;;;;5009301;28;19909;-56
2023/04/14 04:42:19;;;;;;;;;;;;;;;;;;5015723;28;19928;-56
2023/04/14 04:44:45;;;;;;;;;;;;;;;;;;5019643;28;19956;-56
2023/04/14 04:47:11;;;;;;;;;;;;;;;;;;5015840;28;20290;-56
2023/04/14 04:49:37;;;;;;;;;;;;;;;;;;5020440;28;19963;-56
2023/04/14 04:52:03;;;;;;;;;;;;;;;;;;5017599;28;19940;-56
2023/04/14 04:54:29;;;;;;;;;;;;;;;;;;5010266;28;19917;-56
2023/04/14 04:56:57;;;;;;;;;;;;;;;;;;5008438;28;19937;-56
2023/04/14 04:59:23;;;;;;;;;;;;;;;;;;5007911;28;21026;-56
2023/04/14 05:01:49;;;;;;;;;;;;;;;;;;5011809;28;19936;-56
2023/04/14 05:04:15;;;;;;;;;;;;;;;;;;5013885;28;20350;-56
2023/04/14 05:06:41;;;;;;;;;;;;;;;;;;5022100;28;19913;-56
2023/04/14 05:09:07;;;;;;;;;;;;;;;;;;5012889;28;20625;-56
2023/04/14 05:11:33;;;;;;;;;;;;;;;;;;5017051;28;19909;-56
2023/04/14 05:13:59;;;;;;;;;;;;;;;;;;5012224;28;20417;-56
2023/04/14 05:16:27;;;;;;;;;;;;;;;;;;5017437;28;19913;-56
2023/04/14 05:18:52;;;;;;;;;;;;;;;;;;5018635;28;19920;-56
2023/04/14 05:21:18;;;;;;;;;;;;;;;;;;5011385;28;19909;-56
2023/04/14 05:23:44;;;;;;;;;;;;;;;;;;5015383;28;20063;-56
2023/04/14 05:26:11;;;;;;;;;;;;;;;;;;4996475;28;19916;-56
2023/04/14 05:28:37;;;;;;;;;;;;;;;;;;5012327;28;20308;-56
2023/04/14 05:31:03;;;;;;;;;;;;;;;;;;5007508;28;19935;-56
2023/04/14 05:33:29;;;;;;;;;;;;;;;;;;5014008;28;20314;-56
2023/04/14 05:35:55;;;;;;;;;;;;;;;;;;5023730;28;19959;-56
2023/04/14 05:38:21;;;;;;;;;;;;;;;;;;5021354;28;20357;-56
2023/04/14 05:40:47;;;;;;;;;;;;;;;;;;5019267;28;19996;-56
2023/04/14 05:43:13;;;;;;;;;;;;;;;;;;5011443;28;19913;-56
2023/04/14 05:45:39;;;;;;;;;;;;;;;;;;5013111;28;20294;-56
2023/04/14 05:48:05;;;;;;;;;;;;;;;;;;5020683;28;19916;-56
2023/04/14 05:50:32;;;;;;;;;;;;;;;;;;5014562;28;25228;-56
2023/04/14 05:52:58;;;;;;;;;;;;;;;;;;5001850;28;19917;-55
2023/04/14 05:55:24;;;;;;;;;;;;;;;;;;5011700;28;19967;-55
2023/04/14 05:57:51;;;;;;;;;;;;;;;;;;5013605;28;19917;-56
2023/04/14 06:00:17;;;;;;;;;;;;;;;;;;5016187;28;19909;-56
2023/04/14 06:02:44;;;;;;;;;;;;;;;;;;5017162;28;20000;-55
2023/04/14 06:05:11;;;;;;;;;;;;;;;;;;5017314;28;19913;-56
2023/04/14 06:07:37;;;;;;;;;;;;;;;;;;4997081;28;20033;-56
2023/04/14 06:10:03;;;;;;;;;;;;;;;;;;5008717;28;19936;-55
2023/04/14 06:12:29;;;;;;;;;;;;;;;;;;5014154;28;19912;-56
2023/04/14 06:14:55;;;;;;;;;;;;;;;;;;5011831;28;20400;-55
2023/04/14 06:17:20;;;;;;;;;;;;;;;;;;5010114;28;20815;-55
2023/04/14 06:19:49;;;;;;;;;;;;;;;;;;5011113;28;20293;-55
2023/04/14 06:22:18;;;;;;;;;;;;;;;;;;5008057;28;20008;-56
2023/04/14 06:24:44;;;;;;;;;;;;;;;;;;5005653;28;19921;-55
2023/04/14 06:27:10;;;;;;;;;;;;;;;;;;5004448;28;19916;-55
2023/04/14 06:29:36;;;;;;;;;;;;;;;;;;5010089;28;19987;-55
2023/04/14 06:32:01;;;;;;;;;;;;;;;;;;5001963;28;20581;-56
2023/04/14 06:34:27;;;;;;;;;;;;;;;;;;5009321;28;21272;-55
2023/04/14 06:36:55;;;;;;;;;;;;;;;;;;5007125;28;19922;-55
2023/04/14 06:39:21;;;;;;;;;;;;;;;;;;4999837;28;19917;-56
2023/04/14 06:41:47;;;;;;;;;;;;;;;;;;5008986;28;19910;-55
2023/04/14 06:44:13;;;;;;;;;;;;;;;;;;5009452;28;20296;-55
2023/04/14 06:46:39;;;;;;;;;;;;;;;;;;5013173;28;19909;-56
2023/04/14 06:49:04;;;;;;;;;;;;;;;;;;5014836;28;19924;-56
2023/04/14 06:51:31;;;;;;;;;;;;;;;;;;4997003;28;19952;-56
2023/04/14 06:53:57;;;;;;;;;;;;;;;;;;5010231;28;19917;-57
2023/04/14 06:56:23;;;;;;;;;;;;;;;;;;5013280;28;19913;-56
2023/04/14 06:58:49;;;;;;;;;;;;;;;;;;4989261;28;20153;-57
2023/04/14 07:01:15;;;;;;;;;;;;;;;;;;4986438;28;19943;-56
2023/04/14 07:03:40;;;;;;;;;;;;;;;;;;4989061;28;20378;-57
2023/04/14 07:06:07;;;;;;;;;;;;;;;;;;4994592;28;20115;-57
2023/04/14 07:08:33;;;;;;;;;;;;;;;;;;4981641;28;19914;-57
2023/04/14 07:11:00;;;;;;;;;;;;;;;;;;4995198;28;19913;-56
2023/04/14 07:13:26;;;;;;;;;;;;;;;;;;4993725;28;20026;-56
2023/04/14 07:15:52;;;;;;;;;;;;;;;;;;4998907;28;20024;-56
2023/04/14 07:18:18;;;;;;;;;;;;;;;;;;5009945;28;19924;-56
2023/04/14 07:20:44;;;;;;;;;;;;;;;;;;5005169;28;19952;-56
2023/04/14 07:23:10;;;;;;;;;;;;;;;;;;5008456;28;19917;-57
2023/04/14 07:25:36;;;;;;;;;;;;;;;;;;4989162;28;19913;-58
2023/04/14 07:28:02;;;;;;;;;;;;;;;;;;4996502;28;19913;-58
2023/04/14 07:30:28;;;;;;;;;;;;;;;;;;5005574;28;20486;-57
2023/04/14 07:32:54;;;;;;;;;;;;;;;;;;5012802;28;19913;-56
2023/04/14 07:35:20;;;;;;;;;;;;;;;;;;5011359;28;20315;-57
2023/04/14 07:37:45;;;;;;;;;;;;;;;;;;5014370;28;19917;-57
2023/04/14 07:40:11;;;;;;;;;;;;;;;;;;5005132;28;20000;-56
2023/04/14 07:42:37;;;;;;;;;;;;;;;;;;5008117;28;20023;-58
2023/04/14 07:45:03;;;;;;;;;;;;;;;;;;5001839;28;19909;-56
2023/04/14 07:47:29;;;;;;;;;;;;;;;;;;5006720;28;20423;-56
2023/04/14 07:49:55;;;;;;;;;;;;;;;;;;5008999;28;19923;-57
2023/04/14 07:52:21;;;;;;;;;;;;;;;;;;5017023;28;19958;-57
2023/04/14 07:54:47;;;;;;;;;;;;;;;;;;5017859;28;19935;-57
2023/04/14 07:57:13;;;;;;;;;;;;;;;;;;5006620;28;19917;-57
2023/04/14 07:59:41;;;;;;;;;;;;;;;;;;5005182;28;20296;-57
2023/04/14 08:02:07;;;;;;;;;;;;;;;;;;5003874;28;20389;-57
2023/04/14 08:04:33;;;;;;;;;;;;;;;;;;4992066;28;19917;-57
2023/04/14 08:06:59;;;;;;;;;;;;;;;;;;5010564;28;20619;-57
2023/04/14 08:09:25;;;;;;;;;;;;;;;;;;5002723;28;20349;-57
2023/04/14 08:11:51;;;;;;;;;;;;;;;;;;5009011;28;19956;-57
2023/04/14 08:14:17;;;;;;;;;;;;;;;;;;5015044;28;19964;-57
2023/04/14 08:16:42;;;;;;;;;;;;;;;;;;5026921;28;19928;-57
2023/04/14 08:19:08;;;;;;;;;;;;;;;;;;5032409;28;19959;-57
2023/04/14 08:21:35;;;;;;;;;;;;;;;;;;5023576;28;19923;-57
2023/04/14 08:24:00;;;;;;;;;;;;;;;;;;5010494;28;20368;-57
2023/04/14 08:26:27;;;;;;;;;;;;;;;;;;5012427;28;19916;-57
2023/04/14 08:28:52;;;;;;;;;;;;;;;;;;5022579;28;20361;-53
2023/04/14 08:31:18;;;;;;;;;;;;;;;;;;5036793;28;19931;-55
2023/04/14 08:33:44;;;;;;;;;;;;;;;;;;5034576;28;20340;-55
2023/04/14 08:36:10;;;;;;;;;;;;;;;;;;5032229;28;19913;-55
2023/04/14 08:38:36;;;;;;;;;;;;;;;;;;5024236;28;21187;-55
2023/04/14 08:41:02;;;;;;;;;;;;;;;;;;5017458;28;20239;-55
2023/04/14 08:43:28;;;;;;;;;;;;;;;;;;5025102;28;20313;-55
2023/04/14 08:45:54;;;;;;;;;;;;;;;;;;5034979;28;20384;-54
2023/04/14 08:48:20;;;;;;;;;;;;;;;;;;5036629;28;19982;-54
2023/04/14 08:50:46;;;;;;;;;;;;;;;;;;5035912;28;19916;-55
2023/04/14 08:53:12;;;;;;;;;;;;;;;;;;5030810;28;19916;-55
2023/04/14 08:55:39;;;;;;;;;;;;;;;;;;5025971;28;19916;-55
2023/04/14 08:58:05;;;;;;;;;;;;;;;;;;5030089;28;20790;-54
2023/04/14 09:00:31;;;;;;;;;;;;;;;;;;5037461;28;20066;-54
2023/04/14 09:02:57;;;;;;;;;;;;;;;;;;5036869;28;20362;-54
2023/04/14 09:05:23;;;;;;;;;;;;;;;;;;5030654;28;20033;-54
2023/04/14 09:07:48;;;;;;;;;;;;;;;;;;5028348;28;19916;-55
2023/04/14 09:10:14;;;;;;;;;;;;;;;;;;5018217;28;20442;-54
2023/04/14 09:12:40;;;;;;;;;;;;;;;;;;5027100;28;19913;-54
2023/04/14 09:15:06;;;;;;;;;;;;;;;;;;4994531;28;19921;-55
2023/04/14 09:17:32;;;;;;;;;;;;;;;;;;4994124;28;20056;-55
2023/04/14 09:19:58;;;;;;;;;;;;;;;;;;4994890;28;20109;-54
2023/04/14 09:22:24;;;;;;;;;;;;;;;;;;4991869;28;19943;-53
2023/04/14 09:24:50;;;;;;;;;;;;;;;;;;4997260;28;20421;-53
2023/04/14 09:27:16;;;;;;;;;;;;;;;;;;5006108;28;19913;-54
2023/04/14 09:29:42;;;;;;;;;;;;;;;;;;4987577;28;19917;-53
2023/04/14 09:32:08;;;;;;;;;;;;;;;;;;5001946;28;20259;-54
2023/04/14 09:34:34;;;;;;;;;;;;;;;;;;5002091;28;20391;-56
2023/04/14 09:37:01;;;;;;;;;;;;;;;;;;5009999;28;19917;-56
2023/04/14 09:39:27;;;;;;;;;;;;;;;;;;5010888;28;19913;-55
2023/04/14 09:41:53;;;;;;;;;;;;;;;;;;5007736;28;19920;-55
2023/04/14 09:44:19;;;;;;;;;;;;;;;;;;5007142;28;19956;-56
2023/04/14 09:46:45;;;;;;;;;;;;;;;;;;5007613;28;19913;-56
2023/04/14 09:49:11;;;;;;;;;;;;;;;;;;5009406;28;19912;-55
2023/04/14 09:51:37;;;;;;;;;;;;;;;;;;5014102;28;19991;-55
2023/04/14 09:54:03;;;;;;;;;;;;;;;;;;5006624;28;19909;-55
2023/04/14 09:56:29;;;;;;;;;;;;;;;;;;5008436;28;19921;-54
2023/04/14 09:58:55;;;;;;;;;;;;;;;;;;5011568;28;19967;-55
2023/04/14 10:01:21;;;;;;;;;;;;;;;;;;5007988;28;19917;-55
2023/04/14 10:03:46;;;;;;;;;;;;;;;;;;5015514;28;20012;-55
2023/04/14 10:06:13;;;;;;;;;;;;;;;;;;5010533;28;19917;-55
2023/04/14 10:08:39;;;;;;;;;;;;;;;;;;5006764;28;19966;-55
2023/04/14 10:11:05;;;;;;;;;;;;;;;;;;5003341;28;19971;-55
2023/04/14 10:13:31;;;;;;;;;;;;;;;;;;5011066;28;20371;-55
2023/04/14 10:15:57;;;;;;;;;;;;;;;;;;5010988;28;19966;-55
2023/04/14 10:18:23;;;;;;;;;;;;;;;;;;5008232;28;19913;-55
2023/04/14 10:20:49;;;;;;;;;;;;;;;;;;4996665;28;20373;-55
2023/04/14 10:23:15;;;;;;;;;;;;;;;;;;5009555;28;20059;-56
2023/04/14 10:25:40;;;;;;;;;;;;;;;;;;5006040;28;19913;-56
2023/04/14 10:28:06;;;;;;;;;;;;;;;;;;5013762;28;19913;-56
2023/04/14 10:30:32;;;;;;;;;;;;;;;;;;5002174;28;20521;-56
2023/04/14 10:32:58;;;;;;;;;;;;;;;;;;5013961;28;19920;-56
2023/04/14 10:35:24;;;;;;;;;;;;;;;;;;5001129;28;19924;-56
2023/04/14 10:37:50;;;;;;;;;;;;;;;;;;4998463;28;19917;-55
2023/04/14 10:40:16;;;;;;;;;;;;;;;;;;5012013;28;19975;-57
2023/04/14 10:42:42;;;;;;;;;;;;;;;;;;5016181;28;20453;-55
2023/04/14 10:45:09;;;;;;;;;;;;;;;;;;5004591;28;20648;-55
2023/04/14 10:47:35;;;;;;;;;;;;;;;;;;4998132;28;19913;-55
2023/04/14 10:50:03;;;;;;;;;;;;;;;;;;5004468;28;19913;-55
2023/04/14 10:52:29;;;;;;;;;;;;;;;;;;5012762;28;19913;-55
2023/04/14 10:54:56;;;;;;;;;;;;;;;;;;5004295;28;20392;-54
2023/04/14 10:57:22;;;;;;;;;;;;;;;;;;5010092;28;19923;-54
2023/04/14 10:59:48;;;;;;;;;;;;;;;;;;5006828;28;20004;-54
2023/04/14 11:02:14;;;;;;;;;;;;;;;;;;5006724;28;19920;-54
2023/04/14 11:04:40;;;;;;;;;;;;;;;;;;5005455;28;22121;-54
2023/04/14 11:07:06;;;;;;;;;;;;;;;;;;5015397;28;19955;-54
2023/04/14 11:09:32;;;;;;;;;;;;;;;;;;5001365;28;20401;-55
2023/04/14 11:11:58;;;;;;;;;;;;;;;;;;5006044;28;20004;-55
2023/04/14 11:14:24;;;;;;;;;;;;;;;;;;5011792;28;19921;-54
2023/04/14 11:16:50;;;;;;;;;;;;;;;;;;5007634;28;20389;-54
2023/04/14 11:19:16;;;;;;;;;;;;;;;;;;5013897;28;20430;-54
2023/04/14 11:21:42;;;;;;;;;;;;;;;;;;5015786;28;19974;-54
2023/04/14 11:24:08;;;;;;;;;;;;;;;;;;5012027;28;19917;-53
2023/04/14 11:26:35;;;;;;;;;;;;;;;;;;5012886;28;19920;-54
2023/04/14 11:29:01;;;;;;;;;;;;;;;;;;5012628;28;19916;-55
2023/04/14 11:31:27;;;;;;;;;;;;;;;;;;5007696;28;19970;-55
2023/04/14 11:33:53;;;;;;;;;;;;;;;;;;5018415;28;19917;-55
2023/04/14 11:36:19;;;;;;;;;;;;;;;;;;5012523;28;20457;-55
2023/04/14 11:38:46;;;;;;;;;;;;;;;;;;5004179;28;20302;-54
2023/04/14 11:41:11;;;;;;;;;;;;;;;;;;5000344;28;20329;-54
2023/04/14 11:43:37;;;;;;;;;;;;;;;;;;5013383;28;19913;-55
2023/04/14 11:46:03;;;;;;;;;;;;;;;;;;5010545;28;20324;-54
2023/04/14 11:48:29;;;;;;;;;;;;;;;;;;4998771;28;20354;-53
2023/04/14 11:51:01;;;;;;;;;;;;;;;;;;4988782;28;20624;-54
2023/04/14 11:53:27;;;;;;;;;;;;;;;;;;5015884;28;19956;-54
2023/04/14 11:55:53;;;;;;;;;;;;;;;;;;5009926;28;20074;-55
2023/04/14 11:58:19;;;;;;;;;;;;;;;;;;5011867;28;19921;-54
2023/04/14 12:00:44;;;;;;;;;;;;;;;;;;5005276;28;21377;-54
2023/04/14 12:03:10;;;;;;;;;;;;;;;;;;5005795;28;19913;-54
2023/04/14 12:05:36;;;;;;;;;;;;;;;;;;5006516;28;19920;-54
2023/04/14 12:08:07;;;;;;;;;;;;;;;;;;5000801;28;19917;-54
2023/04/14 12:10:33;;;;;;;;;;;;;;;;;;5004704;28;19918;-53
2023/04/14 12:12:59;;;;;;;;;;;;;;;;;;5011770;28;19909;-54
2023/04/14 12:15:25;;;;;;;;;;;;;;;;;;5000210;28;19921;-55
2023/04/14 12:17:51;;;;;;;;;;;;;;;;;;5008717;28;20182;-54
2023/04/14 12:20:17;;;;;;;;;;;;;;;;;;5012047;28;20549;-54
2023/04/14 12:22:43;;;;;;;;;;;;;;;;;;5010514;28;20028;-53
2023/04/14 12:25:09;;;;;;;;;;;;;;;;;;5008233;28;19980;-54
2023/04/14 12:27:35;;;;;;;;;;;;;;;;;;5012143;28;19917;-54
2023/04/14 12:30:01;;;;;;;;;;;;;;;;;;5009562;28;20011;-54
2023/04/14 12:32:29;;;;;;;;;;;;;;;;;;5012356;28;19917;-54
2023/04/14 12:34:56;;;;;;;;;;;;;;;;;;4999666;28;19920;-54
2023/04/14 12:37:22;;;;;;;;;;;;;;;;;;5002398;28;20016;-54
2023/04/14 12:39:49;;;;;;;;;;;;;;;;;;5009472;28;20072;-54
2023/04/14 12:42:15;;;;;;;;;;;;;;;;;;5015662;28;19925;-55
2023/04/14 12:44:41;;;;;;;;;;;;;;;;;;5015786;28;19933;-53
2023/04/14 12:47:07;;;;;;;;;;;;;;;;;;5008010;28;19908;-53
2023/04/14 12:49:33;;;;;;;;;;;;;;;;;;5014588;28;19931;-54
2023/04/14 12:51:59;;;;;;;;;;;;;;;;;;4995502;28;20277;-54
2023/04/14 12:54:25;;;;;;;;;;;;;;;;;;5017860;28;19917;-54
2023/04/14 12:56:51;;;;;;;;;;;;;;;;;;5006589;28;19913;-55
2023/04/14 12:59:17;;;;;;;;;;;;;;;;;;5010524;28;20354;-53
2023/04/14 13:01:43;;;;;;;;;;;;;;;;;;5012648;28;20647;-54
2023/04/14 13:04:09;;;;;;;;;;;;;;;;;;5007141;28;19932;-53
2023/04/14 13:06:35;;;;;;;;;;;;;;;;;;5017732;28;20446;-53
2023/04/14 13:09:00;;;;;;;;;;;;;;;;;;5008251;28;20275;-55
2023/04/14 13:11:27;;;;;;;;;;;;;;;;;;5013483;28;19909;-55
2023/04/14 13:13:53;;;;;;;;;;;;;;;;;;5008643;28;19921;-56
2023/04/14 13:16:19;;;;;;;;;;;;;;;;;;5005454;28;19924;-55
2023/04/14 13:18:45;;;;;;;;;;;;;;;;;;5007477;28;19967;-56
2023/04/14 13:21:11;;;;;;;;;;;;;;;;;;5010689;28;19913;-55
2023/04/14 13:23:37;;;;;;;;;;;;;;;;;;5002333;28;20047;-54
2023/04/14 13:26:03;;;;;;;;;;;;;;;;;;5000084;28;19917;-56
2023/04/14 13:28:28;;;;;;;;;;;;;;;;;;5004651;28;19917;-54
2023/04/14 13:30:54;;;;;;;;;;;;;;;;;;5005443;28;19996;-53
2023/04/14 13:33:20;;;;;;;;;;;;;;;;;;5013855;28;19909;-50
2023/04/14 13:35:46;;;;;;;;;;;;;;;;;;5014767;28;19915;-53
2023/04/14 13:38:12;;;;;;;;;;;;;;;;;;5014364;28;19921;-53
2023/04/14 13:40:38;;;;;;;;;;;;;;;;;;5021088;28;19913;-53
2023/04/14 13:43:04;;;;;;;;;;;;;;;;;;5015508;28;19913;-54
2023/04/14 13:45:31;;;;;;;;;;;;;;;;;;5017923;28;19921;-53
2023/04/14 13:47:56;;;;;;;;;;;;;;;;;;5025415;28;19975;-54
2023/04/14 13:50:22;;;;;;;;;;;;;;;;;;5014762;28;19948;-54
2023/04/14 13:52:48;;;;;;;;;;;;;;;;;;5017743;28;19909;-55
2023/04/14 13:55:14;;;;;;;;;;;;;;;;;;5023049;28;19913;-53
2023/04/14 13:57:40;;;;;;;;;;;;;;;;;;5023632;28;19927;-53
2023/04/14 14:00:06;;;;;;;;;;;;;;;;;;5017220;28;20377;-54
2023/04/14 14:02:32;;;;;;;;;;;;;;;;;;5018136;28;20871;-53
2023/04/14 14:04:59;;;;;;;;;;;;;;;;;;5014672;28;19917;-53
2023/04/14 14:07:25;;;;;;;;;;;;;;;;;;5017484;28;19958;-53
2023/04/14 14:09:50;;;;;;;;;;;;;;;;;;5013558;28;19913;-53
2023/04/14 14:12:16;;;;;;;;;;;;;;;;;;5016709;28;19931;-53
2023/04/14 14:14:42;;;;;;;;;;;;;;;;;;5007586;28;19979;-54
2023/04/14 14:17:08;;;;;;;;;;;;;;;;;;5010014;28;20259;-54
2023/04/14 14:19:34;;;;;;;;;;;;;;;;;;5004471;28;19917;-53
2023/04/14 14:22:00;;;;;;;;;;;;;;;;;;5002725;28;21071;-53
2023/04/14 14:24:26;;;;;;;;;;;;;;;;;;4987620;28;19913;-53
2023/04/14 14:26:52;;;;;;;;;;;;;;;;;;5008435;28;20621;-53
2023/04/14 14:29:18;;;;;;;;;;;;;;;;;;4981306;28;19913;-54
2023/04/14 14:31:44;;;;;;;;;;;;;;;;;;5003152;28;20059;-52
2023/04/14 14:34:10;;;;;;;;;;;;;;;;;;5014551;28;19919;-53
2023/04/14 14:36:36;;;;;;;;;;;;;;;;;;5019680;28;19924;-54
2023/04/14 14:39:02;;;;;;;;;;;;;;;;;;5003599;28;20011;-53
2023/04/14 14:41:28;;;;;;;;;;;;;;;;;;5013361;28;19909;-54
2023/04/14 14:43:53;;;;;;;;;;;;;;;;;;5010504;28;19927;-53
2023/04/14 14:46:21;;;;;;;;;;;;;;;;;;5009662;28;19916;-53
2023/04/14 14:48:47;;;;;;;;;;;;;;;;;;5012666;28;20195;-53
2023/04/14 14:51:14;;;;;;;;;;;;;;;;;;5012927;28;20344;-53
2023/04/14 14:53:40;;;;;;;;;;;;;;;;;;5020535;28;20495;-53
2023/04/14 14:56:05;;;;;;;;;;;;;;;;;;5013427;28;20475;-54
2023/04/14 14:58:31;;;;;;;;;;;;;;;;;;5012665;28;19963;-54
2023/04/14 15:00:57;;;;;;;;;;;;;;;;;;5019544;28;19920;-54
2023/04/14 15:03:23;;;;;;;;;;;;;;;;;;5016706;28;20416;-53
2023/04/14 15:05:51;;;;;;;;;;;;;;;;;;5019746;28;19917;-54
2023/04/14 15:08:17;;;;;;;;;;;;;;;;;;5014892;28;19935;-54
2023/04/14 15:10:42;;;;;;;;;;;;;;;;;;5016689;28;19913;-51
2023/04/14 15:13:08;;;;;;;;;;;;;;;;;;5013318;28;20038;-54
2023/04/14 15:15:34;;;;;;;;;;;;;;;;;;5023657;28;19912;-53
2023/04/14 15:18:00;;;;;;;;;;;;;;;;;;5019132;28;20051;-54
2023/04/14 15:20:26;;;;;;;;;;;;;;;;;;5021500;28;20250;-54
2023/04/14 15:22:52;;;;;;;;;;;;;;;;;;5021114;28;19917;-53
2023/04/14 15:25:18;;;;;;;;;;;;;;;;;;5019503;28;19917;-54
2023/04/14 15:27:44;;;;;;;;;;;;;;;;;;5015614;28;20273;-54
2023/04/14 15:30:10;;;;;;;;;;;;;;;;;;5018691;28;19927;-52
2023/04/14 15:32:35;;;;;;;;;;;;;;;;;;5016976;28;20237;-54
2023/04/14 15:35:01;;;;;;;;;;;;;;;;;;5014788;28;19917;-53
2023/04/14 15:37:27;;;;;;;;;;;;;;;;;;5000537;28;20376;-53
2023/04/14 15:39:53;;;;;;;;;;;;;;;;;;5008750;28;19920;-53
2023/04/14 15:42:19;;;;;;;;;;;;;;;;;;5003565;28;19913;-58
2023/04/14 15:44:45;;;;;;;;;;;;;;;;;;5013116;28;19909;-53
2023/04/14 15:47:11;;;;;;;;;;;;;;;;;;5014372;28;20217;-53
2023/04/14 15:49:37;;;;;;;;;;;;;;;;;;5022415;28;19932;-57
2023/04/14 15:52:04;;;;;;;;;;;;;;;;;;5017207;28;19915;-53
2023/04/14 15:54:32;;;;;;;;;;;;;;;;;;5015211;28;20644;-54
2023/04/14 15:56:58;;;;;;;;;;;;;;;;;;5021075;28;20002;-54
2023/04/14 15:59:23;;;;;;;;;;;;;;;;;;5012792;28;19917;-54
2023/04/14 16:01:49;;;;;;;;;;;;;;;;;;5010516;28;20421;-53
2023/04/14 16:04:16;;;;;;;;;;;;;;;;;;5010004;28;19963;-53
2023/04/14 16:06:42;;;;;;;;;;;;;;;;;;5011067;28;19991;-53
2023/04/14 16:09:08;;;;;;;;;;;;;;;;;;5011471;28;20324;-53
2023/04/14 16:11:35;;;;;;;;;;;;;;;;;;5008160;28;19948;-54
2023/04/14 16:14:00;;;;;;;;;;;;;;;;;;5014995;28;19928;-53
2023/04/14 16:16:27;;;;;;;;;;;;;;;;;;5006248;28;19925;-54
2023/04/14 16:18:53;;;;;;;;;;;;;;;;;;5007440;28;19955;-54
2023/04/14 16:21:19;;;;;;;;;;;;;;;;;;5000094;28;20023;-53
2023/04/14 16:23:45;;;;;;;;;;;;;;;;;;5001174;28;19999;-54
2023/04/14 16:26:11;;;;;;;;;;;;;;;;;;5000956;28;19978;-53
2023/04/14 16:28:37;;;;;;;;;;;;;;;;;;5004125;28;20049;-53
2023/04/14 16:31:03;;;;;;;;;;;;;;;;;;5007172;28;19917;-53
2023/04/14 16:33:31;;;;;;;;;;;;;;;;;;5005650;28;20003;-53
2023/04/14 16:35:57;;;;;;;;;;;;;;;;;;5015859;28;20129;-53
2023/04/14 16:38:23;;;;;;;;;;;;;;;;;;5018409;28;19913;-53